createdAt,value
2018-09-20T00:00:57.158Z,99916.81
2018-09-20T00:02:32.663Z,99914.81
2018-09-20T00:04:08.168Z,99918.64
2018-09-20T00:05:43.626Z,99917.17
2018-09-20T00:07:19.176Z,99916.45
2018-09-20T00:08:54.665Z,99920.23
2018-09-20T00:10:30.176Z,99913.39
2018-09-20T00:12:05.700Z,99916.55
2018-09-20T00:13:41.314Z,99912.59
2018-09-20T00:15:16.781Z,99915.13
2018-09-20T00:16:52.256Z,99917.25
2018-09-20T00:18:27.755Z,99916.41
2018-09-20T00:20:03.268Z,99914.10
2018-09-20T00:21:39.193Z,99914.42
2018-09-20T00:23:14.671Z,99906.77
2018-09-20T00:24:50.176Z,99911.44
2018-09-20T00:26:25.734Z,99908.28
2018-09-20T00:28:01.229Z,99911.13
2018-09-20T00:29:36.735Z,99913.27
2018-09-20T00:31:12.204Z,99912.24
2018-09-20T00:32:47.719Z,99910.86
2018-09-20T00:34:23.345Z,99906.02
2018-09-20T00:35:58.818Z,99911.51
2018-09-20T00:37:34.303Z,99914.67
2018-09-20T00:39:11.451Z,99905.81
2018-09-20T00:40:46.923Z,99911.70
2018-09-20T00:42:22.414Z,99915.88
2018-09-20T00:43:57.870Z,99919.58
2018-09-20T00:45:33.403Z,99918.77
2018-09-20T00:47:08.876Z,99920.59
2018-09-20T00:48:49.963Z,99918.73
2018-09-20T00:50:25.501Z,99922.36
2018-09-20T00:52:01.048Z,99924.29
2018-09-20T00:53:36.547Z,99920.23
2018-09-20T00:55:12.053Z,99923.38
2018-09-20T00:56:47.561Z,99925.38
2018-09-20T00:58:23.127Z,99924.23
2018-09-20T00:59:58.631Z,99926.30
2018-09-20T01:01:34.144Z,99926.85
2018-09-20T01:03:09.644Z,99923.70
2018-09-20T01:04:45.168Z,99930.48
2018-09-20T01:06:20.736Z,99929.58
2018-09-20T01:07:56.241Z,99932.05
2018-09-20T01:09:31.810Z,99934.64
2018-09-20T01:11:07.365Z,99936.27
2018-09-20T01:12:42.894Z,99945.43
2018-09-20T01:14:18.408Z,99936.11
2018-09-20T01:15:53.974Z,99936.19
2018-09-20T01:17:29.655Z,99938.90
2018-09-20T01:19:05.675Z,99939.86
2018-09-20T01:20:41.172Z,99938.84
2018-09-20T01:22:16.692Z,99938.77
2018-09-20T01:23:52.277Z,99947.20
2018-09-20T01:25:27.802Z,99943.81
2018-09-20T01:27:03.350Z,99946.46
2018-09-20T01:28:38.892Z,99949.31
2018-09-20T01:30:14.415Z,99949.02
2018-09-20T01:31:50.060Z,99951.02
2018-09-20T01:33:25.591Z,99943.03
2018-09-20T01:35:01.110Z,99938.06
2018-09-20T01:36:36.734Z,99944.72
2018-09-20T01:38:12.217Z,99941.44
2018-09-20T01:39:47.690Z,99944.77
2018-09-20T01:41:23.188Z,99936.19
2018-09-20T01:42:58.709Z,99941.31
2018-09-20T01:44:34.273Z,99939.08
2018-09-20T01:46:09.824Z,99937.48
2018-09-20T01:47:45.421Z,99938.11
2018-09-20T01:49:20.967Z,99946.58
2018-09-20T01:50:56.507Z,99944.09
2018-09-20T01:52:32.067Z,99948.59
2018-09-20T01:54:13.871Z,99949.54
2018-09-20T01:55:49.811Z,99944.49
2018-09-20T01:57:25.375Z,99948.28
2018-09-20T01:59:00.880Z,99951.00
2018-09-20T02:00:36.481Z,99946.86
2018-09-20T02:02:12.079Z,99948.09
2018-09-20T02:03:47.578Z,99950.09
2018-09-20T02:05:23.110Z,99946.77
2018-09-20T02:06:58.703Z,99944.34
2018-09-20T02:08:34.292Z,99953.09
2018-09-20T02:10:09.779Z,99950.44
2018-09-20T02:11:45.287Z,99945.48
2018-09-20T02:13:20.827Z,99949.33
2018-09-20T02:14:56.401Z,99949.97
2018-09-20T02:16:31.926Z,99948.47
2018-09-20T02:18:07.751Z,99947.86
2018-09-20T02:19:43.273Z,99948.28
2018-09-20T02:21:18.804Z,99950.85
2018-09-20T02:22:54.796Z,99950.88
2018-09-20T02:24:30.291Z,99946.78
2018-09-20T02:26:05.764Z,99950.36
2018-09-20T02:27:41.413Z,99948.95
2018-09-20T02:29:16.956Z,99948.92
2018-09-20T02:30:52.489Z,99945.83
2018-09-20T02:32:28.095Z,99949.03
2018-09-20T02:34:03.570Z,99950.25
2018-09-20T02:35:39.127Z,99948.94
2018-09-20T02:37:14.667Z,99951.44
2018-09-20T02:38:50.175Z,99947.98
2018-09-20T02:40:25.798Z,99954.94
2018-09-20T02:42:01.320Z,99951.32
2018-09-20T02:43:37.229Z,99957.63
2018-09-20T02:45:12.747Z,99956.78
2018-09-20T02:46:48.312Z,99956.10
2018-09-20T02:48:23.894Z,99952.57
2018-09-20T02:49:59.691Z,99953.03
2018-09-20T02:51:35.173Z,99953.03
2018-09-20T02:53:10.675Z,99948.66
2018-09-20T02:54:46.227Z,99954.66
2018-09-20T02:56:21.745Z,99949.80
2018-09-20T02:57:57.308Z,99943.36
2018-09-20T02:59:32.844Z,99946.13
2018-09-20T03:01:08.338Z,99945.91
2018-09-20T03:02:43.866Z,99943.84
2018-09-20T03:04:19.398Z,99951.34
2018-09-20T03:05:54.927Z,99954.63
2018-09-20T03:07:30.440Z,99952.75
2018-09-20T03:09:07.863Z,99954.44
2018-09-20T03:10:43.370Z,99955.27
2018-09-20T03:12:18.902Z,99894.78
2018-09-20T03:13:54.516Z,99951.32
2018-09-20T03:15:30.062Z,99961.11
2018-09-20T03:17:05.706Z,99954.77
2018-09-20T03:18:41.199Z,99958.48
2018-09-20T03:20:16.832Z,99953.34
2018-09-20T03:21:52.405Z,99954.19
2018-09-20T03:23:27.989Z,99954.93
2018-09-20T03:25:03.465Z,99958.75
2018-09-20T03:26:38.941Z,99949.02
2018-09-20T03:28:14.432Z,99958.23
2018-09-20T03:29:50.048Z,99960.25
2018-09-20T03:31:25.599Z,99958.98
2018-09-20T03:33:01.143Z,99955.77
2018-09-20T03:34:36.646Z,99957.66
2018-09-20T03:36:12.183Z,99960.64
2018-09-20T03:37:47.757Z,99956.81
2018-09-20T03:39:23.273Z,99962.23
2018-09-20T03:40:58.856Z,99959.62
2018-09-20T03:42:34.396Z,99957.52
2018-09-20T03:44:09.895Z,99955.63
2018-09-20T03:45:45.393Z,99960.84
2018-09-20T03:47:20.923Z,99961.00
2018-09-20T03:48:56.475Z,99964.56
2018-09-20T03:50:32.033Z,99962.03
2018-09-20T03:52:07.574Z,99964.63
2018-09-20T03:53:43.155Z,99962.78
2018-09-20T03:55:18.651Z,99964.70
2018-09-20T03:56:54.195Z,99964.05
2018-09-20T03:58:29.711Z,99964.46
2018-09-20T04:00:05.288Z,99967.12
2018-09-20T04:01:40.754Z,99955.50
2018-09-20T04:03:16.343Z,99959.88
2018-09-20T04:04:51.851Z,99950.35
2018-09-20T04:06:27.358Z,99958.23
2018-09-20T04:08:02.911Z,99953.34
2018-09-20T04:09:38.384Z,99955.13
2018-09-20T04:11:13.843Z,99951.17
2018-09-20T04:12:49.948Z,99956.48
2018-09-20T04:14:25.454Z,99954.61
2018-09-20T04:16:00.984Z,99955.80
2018-09-20T04:17:36.589Z,99958.66
2018-09-20T04:19:12.098Z,99962.52
2018-09-20T04:20:47.595Z,99961.61
2018-09-20T04:22:23.172Z,99962.43
2018-09-20T04:23:59.300Z,99958.53
2018-09-20T04:25:34.811Z,99959.22
2018-09-20T04:27:10.297Z,99956.75
2018-09-20T04:28:45.837Z,99957.30
2018-09-20T04:30:21.388Z,99956.84
2018-09-20T04:31:56.989Z,99957.69
2018-09-20T04:33:32.451Z,99952.98
2018-09-20T04:35:07.972Z,99955.94
2018-09-20T04:36:49.803Z,99957.27
2018-09-20T04:38:25.315Z,99963.73
2018-09-20T04:40:00.856Z,99966.06
2018-09-20T04:41:51.062Z,99961.26
2018-09-20T04:43:26.613Z,99966.52
2018-09-20T04:45:02.147Z,99970.08
2018-09-20T04:46:37.660Z,99964.70
2018-09-20T04:48:13.225Z,99963.75
2018-09-20T04:49:48.848Z,99963.30
2018-09-20T04:51:24.442Z,99964.89
2018-09-20T04:52:59.967Z,99961.00
2018-09-20T04:54:35.576Z,99961.19
2018-09-20T04:56:11.164Z,99963.56
2018-09-20T04:57:46.746Z,99961.75
2018-09-20T04:59:22.265Z,99965.54
2018-09-20T05:00:57.920Z,99960.90
2018-09-20T05:02:33.497Z,99961.68
2018-09-20T05:04:10.088Z,99963.75
2018-09-20T05:05:45.887Z,99965.70
2018-09-20T05:07:21.442Z,99969.11
2018-09-20T05:08:56.988Z,99968.19
2018-09-20T05:10:32.499Z,99969.49
2018-09-20T05:12:08.139Z,99968.42
2018-09-20T05:13:43.640Z,99970.05
2018-09-20T05:15:19.136Z,99971.66
2018-09-20T05:16:54.627Z,99969.66
2018-09-20T05:18:30.208Z,99967.86
2018-09-20T05:20:05.848Z,99970.64
2018-09-20T05:21:55.906Z,99914.59
2018-09-20T05:23:31.407Z,99979.91
2018-09-20T05:25:07.019Z,99982.56
2018-09-20T05:26:42.583Z,99980.23
2018-09-20T05:28:18.032Z,99979.84
2018-09-20T05:29:53.527Z,99980.38
2018-09-20T05:31:29.040Z,99978.84
2018-09-20T05:33:04.601Z,99977.56
2018-09-20T05:34:40.168Z,99976.45
2018-09-20T05:36:15.667Z,99968.95
2018-09-20T05:37:51.155Z,99970.08
2018-09-20T05:39:26.651Z,99973.08
2018-09-20T05:41:02.202Z,99966.98
2018-09-20T05:42:37.678Z,99969.61
2018-09-20T05:44:13.198Z,99963.95
2018-09-20T05:45:48.697Z,99963.80
2018-09-20T05:47:24.207Z,99967.86
2018-09-20T05:48:59.950Z,99963.70
2018-09-20T05:50:35.465Z,99959.88
2018-09-20T05:52:11.020Z,99959.20
2018-09-20T05:53:47.703Z,99962.48
2018-09-20T05:55:23.354Z,99959.76
2018-09-20T05:56:58.926Z,99963.98
2018-09-20T05:58:34.443Z,99963.70
2018-09-20T06:00:10.230Z,99962.05
2018-09-20T06:01:45.723Z,99962.40
2018-09-20T06:03:21.286Z,99960.89
2018-09-20T06:04:56.961Z,99962.69
2018-09-20T06:06:32.448Z,99958.89
2018-09-20T06:08:07.915Z,99960.39
2018-09-20T06:09:43.614Z,99954.24
2018-09-20T06:11:19.104Z,99962.10
2018-09-20T06:12:54.918Z,99963.61
2018-09-20T06:14:30.495Z,99961.80
2018-09-20T06:16:06.720Z,99983.83
2018-09-20T06:17:42.315Z,99971.21
2018-09-20T06:19:18.040Z,99971.88
2018-09-20T06:20:54.203Z,99960.19
2018-09-20T06:22:30.719Z,99965.52
2018-09-20T06:24:06.538Z,99959.53
2018-09-20T06:25:42.102Z,99956.85
2018-09-20T06:27:17.732Z,99957.53
2018-09-20T06:28:53.383Z,99958.02
2018-09-20T06:30:28.939Z,99960.34
2018-09-20T06:32:19.012Z,99964.69
2018-09-20T06:33:54.539Z,99960.83
2018-09-20T06:35:30.372Z,99966.52
2018-09-20T06:37:06.334Z,99962.17
2018-09-20T06:38:41.969Z,99965.85
2018-09-20T06:40:17.511Z,99960.16
2018-09-20T06:41:53.171Z,99959.83
2018-09-20T06:43:28.686Z,99957.00
2018-09-20T06:45:04.232Z,99958.61
2018-09-20T06:46:39.819Z,99961.82
2018-09-20T06:48:15.298Z,99962.52
2018-09-20T06:49:50.815Z,99962.65
2018-09-20T06:51:26.312Z,99959.55
2018-09-20T06:53:01.864Z,99952.67
2018-09-20T06:54:37.358Z,99953.14
2018-09-20T06:56:12.871Z,99952.89
2018-09-20T06:57:48.369Z,99953.11
2018-09-20T06:59:23.907Z,99956.16
2018-09-20T07:00:59.420Z,99953.27
2018-09-20T07:02:35.676Z,99949.55
2018-09-20T07:04:11.183Z,99950.05
2018-09-20T07:05:46.659Z,99944.66
2018-09-20T07:07:22.199Z,99947.91
2018-09-20T07:08:57.688Z,99952.63
2018-09-20T07:10:33.212Z,99945.46
2018-09-20T07:12:08.690Z,99946.30
2018-09-20T07:13:44.236Z,99950.16
2018-09-20T07:15:19.732Z,99951.19
2018-09-20T07:16:55.223Z,99908.16
2018-09-20T07:18:30.866Z,99951.84
2018-09-20T07:20:06.508Z,99949.94
2018-09-20T07:21:42.001Z,99953.48
2018-09-20T07:23:17.489Z,99956.66
2018-09-20T07:24:53.065Z,99956.35
2018-09-20T07:26:28.529Z,99961.86
2018-09-20T07:28:04.044Z,99961.29
2018-09-20T07:29:39.531Z,99962.87
2018-09-20T07:31:15.027Z,99961.33
2018-09-20T07:32:50.561Z,99958.45
2018-09-20T07:34:26.017Z,99959.64
2018-09-20T07:36:01.558Z,99952.04
2018-09-20T07:37:37.080Z,99948.99
2018-09-20T07:39:12.558Z,99949.11
2018-09-20T07:40:48.062Z,99943.95
2018-09-20T07:42:23.573Z,99945.38
2018-09-20T07:43:59.084Z,99946.18
2018-09-20T07:45:34.613Z,99946.33
2018-09-20T07:47:10.568Z,99940.67
2018-09-20T07:48:46.122Z,99936.71
2018-09-20T07:50:21.637Z,99945.11
2018-09-20T07:51:57.140Z,99937.75
2018-09-20T07:53:32.697Z,99936.20
2018-09-20T07:55:08.194Z,99936.22
2018-09-20T07:56:43.735Z,99936.66
2018-09-20T07:58:19.194Z,99928.50
2018-09-20T07:59:55.283Z,99925.91
2018-09-20T08:01:30.792Z,99930.95
2018-09-20T08:03:06.250Z,99929.01
2018-09-20T08:04:41.804Z,99927.36
2018-09-20T08:06:17.320Z,99926.34
2018-09-20T08:07:52.844Z,99926.87
2018-09-20T08:09:28.380Z,99928.79
2018-09-20T08:11:03.884Z,99927.38
2018-09-20T08:12:39.380Z,99927.96
2018-09-20T08:14:14.890Z,99908.77
2018-09-20T08:15:50.435Z,99927.00
2018-09-20T08:17:25.896Z,99927.25
2018-09-20T08:19:01.415Z,99927.55
2018-09-20T08:20:36.903Z,99921.69
2018-09-20T08:22:13.155Z,99928.83
2018-09-20T08:23:48.642Z,99923.79
2018-09-20T08:25:24.596Z,99919.48
2018-09-20T08:27:00.151Z,99919.53
2018-09-20T08:28:35.633Z,99919.13
2018-09-20T08:30:11.145Z,99919.36
2018-09-20T08:31:46.715Z,99919.75
2018-09-20T08:33:22.291Z,99915.87
2018-09-20T08:34:57.784Z,99909.23
2018-09-20T08:36:33.288Z,99911.02
2018-09-20T08:38:08.810Z,99914.00
2018-09-20T08:39:44.303Z,99910.59
2018-09-20T08:41:19.800Z,99906.72
2018-09-20T08:42:55.361Z,99905.56
2018-09-20T08:44:30.825Z,99907.41
2018-09-20T08:46:06.399Z,99906.51
2018-09-20T08:47:41.917Z,99899.84
2018-09-20T08:49:17.592Z,99901.80
2018-09-20T08:50:53.145Z,99905.66
2018-09-20T08:52:28.662Z,99897.08
2018-09-20T08:54:04.157Z,99900.73
2018-09-20T08:55:39.696Z,99896.91
2018-09-20T08:57:15.272Z,99895.45
2018-09-20T08:58:50.812Z,99893.53
2018-09-20T09:00:27.418Z,99887.83
2018-09-20T09:02:02.984Z,99892.86
2018-09-20T09:03:38.520Z,99892.31
2018-09-20T09:05:14.092Z,99889.84
2018-09-20T09:07:22.162Z,99891.80
2018-09-20T09:08:58.107Z,99890.84
2018-09-20T09:10:34.042Z,99889.95
2018-09-20T09:12:09.728Z,99889.48
2018-09-20T09:13:45.263Z,99886.28
2018-09-20T09:15:20.798Z,99882.99
2018-09-20T09:16:56.429Z,99880.08
2018-09-20T09:18:32.050Z,99885.61
2018-09-20T09:20:07.607Z,99877.83
2018-09-20T09:21:43.102Z,99873.69
2018-09-20T09:23:18.638Z,99877.11
2018-09-20T09:24:54.653Z,99873.32
2018-09-20T09:26:30.189Z,99868.70
2018-09-20T09:28:06.521Z,99867.07
2018-09-20T09:29:42.042Z,99865.59
2018-09-20T09:31:17.594Z,99863.03
2018-09-20T09:32:53.148Z,99864.87
2018-09-20T09:34:28.670Z,99857.30
2018-09-20T09:36:04.250Z,99858.14
2018-09-20T09:37:39.889Z,99859.06
2018-09-20T09:39:15.457Z,99848.17
2018-09-20T09:40:51.113Z,99845.17
2018-09-20T09:42:26.615Z,99840.08
2018-09-20T09:44:02.745Z,99839.56
2018-09-20T09:45:39.311Z,99841.20
2018-09-20T09:47:14.877Z,99834.43
2018-09-20T09:48:50.652Z,99835.59
2018-09-20T09:50:26.161Z,99838.89
2018-09-20T09:52:01.844Z,99835.55
2018-09-20T09:53:37.405Z,99826.39
2018-09-20T09:55:12.969Z,99828.77
2018-09-20T09:56:48.510Z,99827.88
2018-09-20T09:58:24.064Z,99822.98
2018-09-20T09:59:59.594Z,99830.48
2018-09-20T10:01:35.246Z,99819.97
2018-09-20T10:03:10.761Z,99816.53
2018-09-20T10:04:46.685Z,99818.30
2018-09-20T10:06:22.266Z,99814.33
2018-09-20T10:07:57.839Z,99815.36
2018-09-20T10:09:33.518Z,99808.05
2018-09-20T10:11:09.038Z,99806.27
2018-09-20T10:12:44.684Z,99804.92
2018-09-20T10:14:20.218Z,99803.94
2018-09-20T10:15:55.762Z,99802.59
2018-09-20T10:17:31.445Z,99794.66
2018-09-20T10:19:07.002Z,99802.13
2018-09-20T10:20:42.534Z,99799.78
2018-09-20T10:22:18.096Z,99791.05
2018-09-20T10:23:53.675Z,99789.41
2018-09-20T10:25:29.253Z,99788.50
2018-09-20T10:27:04.794Z,99795.16
2018-09-20T10:28:40.351Z,99785.70
2018-09-20T10:30:15.897Z,99787.81
2018-09-20T10:31:51.447Z,99788.50
2018-09-20T10:33:27.006Z,99777.16
2018-09-20T10:35:03.515Z,99771.62
2018-09-20T10:36:39.105Z,99779.66
2018-09-20T10:38:14.661Z,99777.79
2018-09-20T10:39:50.411Z,99770.18
2018-09-20T10:41:26.104Z,99762.53
2018-09-20T10:43:01.697Z,99772.13
2018-09-20T10:44:37.246Z,99770.86
2018-09-20T10:46:12.983Z,99768.15
2018-09-20T10:47:48.520Z,99765.75
2018-09-20T10:49:24.413Z,99763.52
2018-09-20T10:50:59.979Z,99764.05
2018-09-20T10:52:35.516Z,99769.27
2018-09-20T10:54:11.076Z,99760.32
2018-09-20T10:55:46.649Z,99766.25
2018-09-20T10:57:22.170Z,99764.14
2018-09-20T10:58:57.728Z,99767.00
2018-09-20T11:00:33.344Z,99758.52
2018-09-20T11:02:08.885Z,99756.49
2018-09-20T11:03:44.425Z,99759.64
2018-09-20T11:05:19.986Z,99752.88
2018-09-20T11:06:55.704Z,99748.86
2018-09-20T11:08:31.221Z,99745.07
2018-09-20T11:10:06.790Z,99739.50
2018-09-20T11:11:42.349Z,99734.81
2018-09-20T11:13:17.883Z,99742.21
2018-09-20T11:14:53.451Z,99743.41
2018-09-20T11:16:29.022Z,99742.17
2018-09-20T11:18:04.557Z,99743.04
2018-09-20T11:19:40.145Z,99728.67
2018-09-20T11:21:15.974Z,99735.36
2018-09-20T11:22:51.530Z,99719.06
2018-09-20T11:24:27.193Z,99724.83
2018-09-20T11:26:02.776Z,99718.00
2018-09-20T11:27:38.321Z,99721.30
2018-09-20T11:29:14.004Z,99727.70
2018-09-20T11:30:49.518Z,99721.97
2018-09-20T11:32:25.059Z,99719.19
2018-09-20T11:34:00.604Z,99719.89
2018-09-20T11:35:36.148Z,99717.94
2018-09-20T11:37:11.685Z,99721.67
2018-09-20T11:38:47.425Z,99721.31
2018-09-20T11:40:22.954Z,99722.74
2018-09-20T11:41:58.638Z,99721.15
2018-09-20T11:43:34.174Z,99715.30
2018-09-20T11:45:09.679Z,99708.91
2018-09-20T11:46:45.378Z,99713.32
2018-09-20T11:48:21.043Z,99712.13
2018-09-20T11:49:56.577Z,99704.00
2018-09-20T11:51:32.165Z,99706.86
2018-09-20T11:53:07.700Z,99704.23
2018-09-20T11:54:43.258Z,99705.97
2018-09-20T11:56:18.829Z,99698.14
2018-09-20T11:57:54.352Z,99695.91
2018-09-20T11:59:30.052Z,99709.14
2018-09-20T12:01:05.867Z,99702.34
2018-09-20T12:02:41.445Z,99700.75
2018-09-20T12:04:16.973Z,99687.30
2018-09-20T12:05:52.495Z,99682.63
2018-09-20T12:07:28.054Z,99683.84
2018-09-20T12:09:05.022Z,99683.97
2018-09-20T12:10:40.577Z,99688.31
2018-09-20T12:12:16.081Z,99678.62
2018-09-20T12:13:51.592Z,99678.95
2018-09-20T12:15:27.147Z,99678.32
2018-09-20T12:17:02.680Z,99680.36
2018-09-20T12:18:38.341Z,99678.78
2018-09-20T12:20:14.008Z,99672.25
2018-09-20T12:21:49.960Z,99674.88
2018-09-20T12:23:25.489Z,99670.31
2018-09-20T12:25:01.211Z,99665.14
2018-09-20T12:26:36.779Z,99664.83
2018-09-20T12:28:12.324Z,99664.05
2018-09-20T12:29:47.865Z,99651.80
2018-09-20T12:31:24.199Z,99648.42
2018-09-20T12:32:59.725Z,99654.32
2018-09-20T12:34:35.253Z,99645.67
2018-09-20T12:36:11.160Z,99647.94
2018-09-20T12:37:46.688Z,99642.89
2018-09-20T12:39:22.198Z,99643.87
2018-09-20T12:40:57.738Z,99641.80
2018-09-20T12:42:33.680Z,99652.68
2018-09-20T12:44:09.194Z,99640.63
2018-09-20T12:45:44.821Z,99645.58
2018-09-20T12:47:20.368Z,99639.81
2018-09-20T12:48:55.993Z,99637.87
2018-09-20T12:50:31.516Z,99638.17
2018-09-20T12:52:07.101Z,99637.47
2018-09-20T12:53:42.698Z,99633.34
2018-09-20T12:55:18.503Z,99633.52
2018-09-20T12:56:54.034Z,99632.23
2018-09-20T12:58:34.857Z,99627.47
2018-09-20T13:00:10.748Z,99627.22
2018-09-20T13:01:46.328Z,99626.00
2018-09-20T13:03:21.855Z,99627.91
2018-09-20T13:04:57.474Z,99629.54
2018-09-20T13:06:32.999Z,99616.25
2018-09-20T13:08:08.556Z,99623.47
2018-09-20T13:09:44.367Z,99625.32
2018-09-20T13:11:20.308Z,99617.50
2018-09-20T13:12:55.893Z,99616.05
2018-09-20T13:14:31.389Z,99624.82
2018-09-20T13:16:06.967Z,99625.22
2018-09-20T13:17:42.479Z,99614.44
2018-09-20T13:19:18.021Z,99616.23
2018-09-20T13:20:53.590Z,99615.41
2018-09-20T13:22:29.402Z,99612.74
2018-09-20T13:24:04.974Z,99611.91
2018-09-20T13:25:40.690Z,99611.59
2018-09-20T13:27:16.292Z,99603.52
2018-09-20T13:28:51.932Z,99600.63
2018-09-20T13:30:27.474Z,99605.00
2018-09-20T13:32:03.011Z,99601.98
2018-09-20T13:33:38.506Z,99594.23
2018-09-20T13:35:14.080Z,99600.55
2018-09-20T13:36:49.633Z,99594.30
2018-09-20T13:38:25.167Z,99590.63
2018-09-20T13:40:00.748Z,99591.61
2018-09-20T13:41:36.276Z,99590.36
2018-09-20T13:43:11.869Z,99583.77
2018-09-20T13:44:47.402Z,99579.30
2018-09-20T13:46:23.207Z,99585.02
2018-09-20T13:47:58.774Z,99582.75
2018-09-20T13:49:34.343Z,99579.09
2018-09-20T13:51:10.197Z,99588.01
2018-09-20T13:52:45.704Z,99579.30
2018-09-20T13:54:21.209Z,99593.16
2018-09-20T13:55:56.762Z,99580.56
2018-09-20T13:57:32.338Z,99583.75
2018-09-20T13:59:07.841Z,99583.09
2018-09-20T14:00:43.441Z,99576.50
2018-09-20T14:02:19.013Z,99582.95
2018-09-20T14:03:54.700Z,99590.32
2018-09-20T14:05:30.327Z,99581.59
2018-09-20T14:07:05.886Z,99582.77
2018-09-20T14:08:41.693Z,99577.67
2018-09-20T14:10:17.232Z,99580.97
2018-09-20T14:11:52.932Z,99581.17
2018-09-20T14:13:28.496Z,99575.69
2018-09-20T14:15:03.995Z,99579.27
2018-09-20T14:16:39.505Z,99578.51
2018-09-20T14:18:15.069Z,99574.45
2018-09-20T14:19:50.579Z,99529.13
2018-09-20T14:21:26.121Z,99566.95
2018-09-20T14:23:01.657Z,99572.89
2018-09-20T14:24:37.181Z,99567.02
2018-09-20T14:26:12.715Z,99567.73
2018-09-20T14:27:48.301Z,99559.05
2018-09-20T14:29:23.884Z,99566.82
2018-09-20T14:30:59.371Z,99570.34
2018-09-20T14:32:34.928Z,99566.82
2018-09-20T14:34:10.650Z,99564.70
2018-09-20T14:35:46.229Z,99563.17
2018-09-20T14:37:21.802Z,99566.13
2018-09-20T14:38:57.766Z,99562.31
2018-09-20T14:40:33.654Z,99569.23
2018-09-20T14:42:09.185Z,99564.27
2018-09-20T14:43:44.750Z,99569.55
2018-09-20T14:45:20.543Z,99560.70
2018-09-20T14:46:56.430Z,99558.55
2018-09-20T14:48:32.061Z,99556.33
2018-09-20T14:50:07.920Z,99556.14
2018-09-20T14:51:43.469Z,99553.30
2018-09-20T14:53:18.993Z,99555.43
2018-09-20T14:54:54.569Z,99549.14
2018-09-20T14:56:30.201Z,99556.26
2018-09-20T14:58:06.413Z,99559.48
2018-09-20T14:59:42.023Z,99551.64
2018-09-20T15:01:17.535Z,99555.36
2018-09-20T15:02:53.102Z,99553.17
2018-09-20T15:04:28.695Z,99551.25
2018-09-20T15:06:04.338Z,99547.58
2018-09-20T15:07:39.859Z,99547.69
2018-09-20T15:09:16.605Z,99541.16
2018-09-20T15:10:52.481Z,99539.19
2018-09-20T15:12:28.011Z,99542.00
2018-09-20T15:14:03.597Z,99540.81
2018-09-20T15:15:39.199Z,99536.20
2018-09-20T15:17:14.777Z,99537.14
2018-09-20T15:18:50.358Z,99531.73
2018-09-20T15:20:25.887Z,99539.19
2018-09-20T15:22:01.476Z,99537.77
2018-09-20T15:23:37.121Z,99543.03
2018-09-20T15:25:12.699Z,99538.73
2018-09-20T15:26:48.315Z,99530.92
2018-09-20T15:28:23.827Z,99533.32
2018-09-20T15:29:59.462Z,99540.08
2018-09-20T15:31:34.989Z,99536.67
2018-09-20T15:33:10.960Z,99544.59
2018-09-20T15:34:46.502Z,99537.59
2018-09-20T15:36:22.042Z,99542.56
2018-09-20T15:37:57.616Z,99539.86
2018-09-20T15:39:33.191Z,99540.16
2018-09-20T15:41:08.748Z,99537.70
2018-09-20T15:42:44.260Z,99536.03
2018-09-20T15:44:19.775Z,99531.15
2018-09-20T15:45:55.342Z,99534.61
2018-09-20T15:47:31.212Z,99533.85
2018-09-20T15:49:06.661Z,99536.33
2018-09-20T15:50:42.274Z,99536.61
2018-09-20T15:52:17.788Z,99540.47
2018-09-20T15:53:53.482Z,99541.39
2018-09-20T15:55:29.023Z,99537.84
2018-09-20T15:57:04.590Z,99536.46
2018-09-20T15:58:40.089Z,99535.34
2018-09-20T16:00:15.677Z,99537.41
2018-09-20T16:01:51.222Z,99536.89
2018-09-20T16:03:26.948Z,99535.06
2018-09-20T16:05:02.496Z,99533.94
2018-09-20T16:06:38.280Z,99531.98
2018-09-20T16:08:14.060Z,99532.74
2018-09-20T16:09:49.725Z,99531.83
2018-09-20T16:11:25.577Z,99532.98
2018-09-20T16:13:01.346Z,99528.51
2018-09-20T16:14:37.021Z,99530.44
2018-09-20T16:16:12.763Z,99532.47
2018-09-20T16:17:48.321Z,99529.59
2018-09-20T16:19:23.919Z,99529.28
2018-09-20T16:20:59.941Z,99525.38
2018-09-20T16:22:35.613Z,99526.05
2018-09-20T16:24:11.290Z,99523.32
2018-09-20T16:25:47.241Z,99526.22
2018-09-20T16:27:23.161Z,99527.84
2018-09-20T16:30:09.361Z,99522.50
2018-09-20T16:32:11.885Z,99515.64
2018-09-20T16:34:02.060Z,99480.22
2018-09-20T16:35:41.779Z,99518.01
2018-09-20T16:37:25.845Z,99510.44
2018-09-20T16:39:08.878Z,99510.53
2018-09-20T16:40:45.829Z,99508.20
2018-09-20T16:42:22.494Z,99512.85
2018-09-20T16:43:58.154Z,99513.40
2018-09-20T16:45:34.134Z,99509.88
2018-09-20T16:47:09.819Z,99512.57
2018-09-20T16:48:45.386Z,99508.56
2018-09-20T16:50:20.969Z,99509.27
2018-09-20T16:51:56.582Z,99507.50
2018-09-20T16:53:32.188Z,99502.53
2018-09-20T16:55:07.733Z,99508.48
2018-09-20T16:56:43.264Z,99500.81
2018-09-20T16:58:18.806Z,99503.70
2018-09-20T16:59:54.411Z,99503.64
2018-09-20T17:01:30.146Z,99503.63
2018-09-20T17:03:05.726Z,99500.00
2018-09-20T17:04:41.260Z,99505.99
2018-09-20T17:06:17.993Z,99511.19
2018-09-20T17:07:53.586Z,99509.43
2018-09-20T17:09:29.184Z,99508.59
2018-09-20T17:11:04.756Z,99509.55
2018-09-20T17:12:40.358Z,99505.70
2018-09-20T17:14:15.943Z,99515.95
2018-09-20T17:15:52.087Z,99508.28
2018-09-20T17:17:27.955Z,99513.87
2018-09-20T17:19:03.717Z,99516.34
2018-09-20T17:20:39.505Z,99520.58
2018-09-20T17:22:15.090Z,99518.44
2018-09-20T17:23:51.055Z,99521.72
2018-09-20T17:25:27.010Z,99515.32
2018-09-20T17:27:02.970Z,99516.52
2018-09-20T17:28:39.259Z,99516.38
2018-09-20T17:30:16.181Z,99519.66
2018-09-20T17:31:54.681Z,99514.67
2018-09-20T17:33:30.404Z,99518.91
2018-09-20T17:35:05.978Z,99517.97
2018-09-20T17:36:41.784Z,99517.91
2018-09-20T17:38:18.219Z,99515.39
2018-09-20T17:39:54.613Z,99520.22
2018-09-20T17:41:32.462Z,99523.34
2018-09-20T17:43:10.541Z,99519.59
2018-09-20T17:44:46.406Z,99517.51
2018-09-20T17:46:21.985Z,99521.11
2018-09-20T17:47:57.684Z,99517.34
2018-09-20T17:49:33.352Z,99519.74
2018-09-20T17:51:09.695Z,99526.64
2018-09-20T17:52:46.655Z,99520.02
2018-09-20T17:54:23.993Z,99518.28
2018-09-20T17:56:00.382Z,99519.25
2018-09-20T17:57:36.975Z,99519.25
2018-09-20T17:59:12.649Z,99514.66
2018-09-20T18:00:52.002Z,99517.95
2018-09-20T18:02:28.062Z,99519.76
2018-09-20T18:04:03.667Z,99523.34
2018-09-20T18:05:39.457Z,99518.02
2018-09-20T18:07:15.146Z,99520.88
2018-09-20T18:08:50.905Z,99520.80
2018-09-20T18:10:26.710Z,99513.91
2018-09-20T18:12:02.408Z,99514.08
2018-09-20T18:13:38.016Z,99518.88
2018-09-20T18:15:13.559Z,99523.38
2018-09-20T18:16:50.384Z,99519.97
2018-09-20T18:18:27.186Z,99527.52
2018-09-20T18:20:04.991Z,99522.87
2018-09-20T18:21:45.186Z,99518.97
2018-09-20T18:23:26.780Z,99529.11
2018-09-20T18:25:06.647Z,99520.69
2018-09-20T18:26:43.910Z,99522.94
2018-09-20T18:28:21.443Z,99524.91
2018-09-20T18:29:57.057Z,99519.97
2018-09-20T18:31:32.685Z,99519.05
2018-09-20T18:33:09.680Z,99522.36
2018-09-20T18:34:45.303Z,99520.05
2018-09-20T18:36:20.928Z,99526.18
2018-09-20T18:37:56.622Z,99525.05
2018-09-20T18:39:32.245Z,99521.36
2018-09-20T18:41:09.178Z,99517.20
2018-09-20T18:42:44.798Z,99518.80
2018-09-20T18:44:20.410Z,99520.19
2018-09-20T18:45:56.041Z,99527.73
2018-09-20T18:47:31.861Z,99528.61